Mc Coy, Colorado
Current Conditions -  °F | °C
As of 10:35 AM on Sunday 23 Nov 2014 (Local Time) from K20V Reporting Station
Light Snow Light Snow  
Wind Chill: 24°   Ceiling: 2100
Heat Index: 30°   Visibility: 4mi
Dew Point: 21°   Wind: 6mph
Humidity: 69%   Direction: 260°W
Pressure: 29.87"   Gusts: NA
Location:  39.9149°N, 106.722°W
Report Text: K20V 231735Z AUTO 26005KT 4SM -SN SCT016 BKN021 OVC033 M01/M06 A2987 RMK AO2
Loading
Personal Weather Stations






























Interactive Weather Map New forecast layout! Learn more

10-Day Weather Forecast

Advertisements
Track Severe Weather on mobile